Time;durP1;ratioP1;P1;durP2;ratioP2;P2;SDS_P1;SDS_P2;PMS_P1;PMS_P2;Temp;Humidity;BMP_temperature;BMP_pressure;BME280_temperature;BME280_humidity;BME280_pressure;Samples;Min_cycle;Max_cycle;Signal;HPM_P1;HPM_P2
2021/10/24 00:02:09;;;;;;;26.67;24.00;;;5.60;99.90;;;;;;5096316;28;20485;-68
2021/10/24 00:04:36;;;;;;;27.17;24.77;;;5.70;99.90;;;;;;5098196;28;20461;-69
2021/10/24 00:07:03;;;;;;;28.67;25.23;;;5.70;99.90;;;;;;5101675;28;20484;-68
2021/10/24 00:09:30;;;;;;;26.93;24.73;;;5.60;99.90;;;;;;5104226;28;20501;-70
2021/10/24 00:11:58;;;;;;;25.97;23.10;;;5.60;99.90;;;;;;5097116;28;20472;-69
2021/10/24 00:14:25;;;;;;;27.43;24.80;;;5.60;99.90;;;;;;5098517;28;20461;-69
2021/10/24 00:16:51;;;;;;;26.73;24.07;;;5.50;99.90;;;;;;5094002;28;21265;-70
2021/10/24 00:19:18;;;;;;;27.30;25.20;;;5.50;99.90;;;;;;5095368;28;20461;-69
2021/10/24 00:21:46;;;;;;;28.70;25.50;;;5.50;99.90;;;;;;5102723;28;20464;-68
2021/10/24 00:24:13;;;;;;;27.13;24.47;;;5.50;99.90;;;;;;5094033;28;20540;-70
2021/10/24 00:26:39;;;;;;;26.70;24.20;;;5.40;99.90;;;;;;5097084;28;20818;-68
2021/10/24 00:29:08;;;;;;;26.90;24.33;;;5.40;99.90;;;;;;5097025;28;20569;-69
2021/10/24 00:31:36;;;;;;;28.80;25.90;;;5.40;99.90;;;;;;5093161;28;20466;-70
2021/10/24 00:34:03;;;;;;;29.17;26.20;;;5.40;99.90;;;;;;5097326;28;20462;-68
2021/10/24 00:36:30;;;;;;;27.47;25.10;;;5.30;99.90;;;;;;5097476;28;20513;-67
2021/10/24 00:38:57;;;;;;;27.33;24.93;;;5.30;99.90;;;;;;5102574;28;20462;-69
2021/10/24 00:41:24;;;;;;;26.70;24.53;;;5.30;99.90;;;;;;5093946;28;21076;-70
2021/10/24 00:43:51;;;;;;;31.23;24.50;;;5.20;99.90;;;;;;5095243;28;20478;-69
2021/10/24 00:46:19;;;;;;;26.10;23.93;;;5.20;99.90;;;;;;5095925;28;20476;-68
2021/10/24 00:48:46;;;;;;;27.43;25.03;;;5.30;99.90;;;;;;5096014;28;20816;-70
2021/10/24 00:51:13;;;;;;;29.40;26.30;;;5.20;99.90;;;;;;5096277;28;20480;-70
2021/10/24 00:53:42;;;;;;;33.37;23.80;;;5.20;99.90;;;;;;5099682;28;20973;-69
2021/10/24 00:56:09;;;;;;;28.27;25.60;;;5.20;99.90;;;;;;5088700;28;20483;-67
2021/10/24 00:58:37;;;;;;;27.40;24.47;;;5.20;99.90;;;;;;5095943;28;20793;-70
2021/10/24 01:01:04;;;;;;;28.07;25.20;;;5.20;99.90;;;;;;5094005;28;20490;-70
2021/10/24 01:03:32;;;;;;;26.47;24.27;;;5.20;99.90;;;;;;5096701;28;20950;-68
2021/10/24 01:06:01;;;;;;;30.03;26.40;;;5.10;99.90;;;;;;5099538;28;20830;-67
2021/10/24 01:08:28;;;;;;;27.33;24.70;;;5.00;99.90;;;;;;5101019;28;21015;-70
2021/10/24 01:10:55;;;;;;;27.63;25.07;;;5.00;99.90;;;;;;5095279;28;20474;-69
2021/10/24 01:13:22;;;;;;;27.57;24.93;;;5.00;99.90;;;;;;5097310;28;20488;-67
2021/10/24 01:15:49;;;;;;;27.83;25.50;;;5.10;99.90;;;;;;5091287;28;20468;-69
2021/10/24 01:18:16;;;;;;;25.93;23.97;;;5.10;99.90;;;;;;5087647;28;20466;-67
2021/10/24 01:20:45;;;;;;;30.63;25.30;;;5.00;99.90;;;;;;5098450;28;20470;-69
2021/10/24 01:23:14;;;;;;;27.37;24.70;;;5.00;99.90;;;;;;5092771;28;20551;-67
2021/10/24 01:25:41;;;;;;;26.73;24.70;;;5.00;99.90;;;;;;5094678;28;20978;-69
2021/10/24 01:28:08;;;;;;;27.10;24.77;;;5.00;99.90;;;;;;5098007;28;20457;-67
2021/10/24 01:30:36;;;;;;;27.00;24.77;;;5.00;99.90;;;;;;5095280;28;20491;-69
2021/10/24 01:33:03;;;;;;;26.97;24.70;;;5.00;99.90;;;;;;5093074;28;20510;-68
2021/10/24 01:35:29;;;;;;;30.87;23.83;;;5.00;99.90;;;;;;5096466;28;20461;-69
2021/10/24 01:37:58;;;;;;;26.40;24.30;;;5.00;99.90;;;;;;5101187;28;20460;-68
2021/10/24 01:40:26;;;;;;;26.87;24.47;;;5.00;99.90;;;;;;5102047;28;20472;-69
2021/10/24 01:42:56;;;;;;;25.97;24.00;;;4.90;99.90;;;;;;5082091;28;21476;-68
2021/10/24 01:45:24;;;;;;;25.93;24.00;;;4.90;99.90;;;;;;5091436;28;20462;-69
2021/10/24 01:47:52;;;;;;;27.80;25.20;;;4.80;99.90;;;;;;5101965;28;20462;-69
2021/10/24 01:50:20;;;;;;;27.53;25.13;;;4.80;99.90;;;;;;5104267;28;20499;-68
2021/10/24 01:52:48;;;;;;;27.30;24.93;;;4.70;99.90;;;;;;5092107;28;20579;-67
2021/10/24 01:55:15;;;;;;;27.53;24.17;;;4.70;99.90;;;;;;5093149;28;20523;-67
2021/10/24 01:57:46;;;;;;;26.00;23.90;;;4.80;99.90;;;;;;5096485;28;20485;-69
2021/10/24 02:00:14;;;;;;;28.23;23.17;;;4.80;99.90;;;;;;5098560;28;20458;-69
2021/10/24 02:02:41;;;;;;;25.73;23.20;;;4.80;99.90;;;;;;5094023;28;20461;-67
2021/10/24 02:05:09;;;;;;;25.07;23.23;;;4.80;99.90;;;;;;5094799;28;20457;-68
2021/10/24 02:07:36;;;;;;;27.63;25.03;;;4.80;99.90;;;;;;5096244;28;20458;-70
2021/10/24 02:10:04;;;;;;;25.43;23.17;;;4.80;99.90;;;;;;5096291;28;20497;-69
2021/10/24 02:12:31;;;;;;;27.13;24.77;;;4.80;99.90;;;;;;5093098;28;20821;-70
2021/10/24 02:15:00;;;;;;;27.40;25.20;;;4.80;99.90;;;;;;5100409;28;20459;-67
2021/10/24 02:17:28;;;;;;;28.23;25.43;;;4.80;99.90;;;;;;5089683;28;20464;-69
2021/10/24 02:19:56;;;;;;;27.13;24.73;;;4.80;99.90;;;;;;5091709;28;20552;-68
2021/10/24 02:22:23;;;;;;;26.20;24.00;;;4.70;99.90;;;;;;5096060;28;20472;-68
2021/10/24 02:24:50;;;;;;;26.90;24.33;;;4.70;99.90;;;;;;5095187;28;20467;-68
2021/10/24 02:27:17;;;;;;;27.00;24.50;;;4.70;99.90;;;;;;5089179;28;20476;-70
2021/10/24 02:29:45;;;;;;;26.53;24.27;;;4.70;99.90;;;;;;5092191;28;21122;-68
2021/10/24 02:32:14;;;;;;;28.00;25.13;;;4.70;99.90;;;;;;5087687;28;20457;-69
2021/10/24 02:34:41;;;;;;;27.73;24.97;;;4.70;99.90;;;;;;5099785;28;20458;-68
2021/10/24 02:37:08;;;;;;;27.80;25.30;;;4.70;99.90;;;;;;5098653;28;20465;-68
2021/10/24 02:39:36;;;;;;;26.33;24.03;;;4.70;99.90;;;;;;5097033;28;20539;-68
2021/10/24 02:42:03;;;;;;;27.53;24.73;;;4.60;99.90;;;;;;5100324;28;20546;-68
2021/10/24 02:44:30;;;;;;;26.47;24.40;;;4.60;99.90;;;;;;5100961;28;20464;-69
2021/10/24 02:46:57;;;;;;;26.07;23.77;;;4.60;99.90;;;;;;5101365;28;20824;-68
2021/10/24 02:49:26;;;;;;;27.37;24.90;;;4.70;99.90;;;;;;5095478;28;20490;-69
2021/10/24 02:51:53;;;;;;;28.83;26.03;;;4.70;99.90;;;;;;5094588;28;20458;-68
2021/10/24 02:54:21;;;;;;;27.20;25.10;;;4.60;99.90;;;;;;5091421;28;20466;-69
2021/10/24 02:56:48;;;;;;;28.17;25.50;;;4.60;99.90;;;;;;5088846;28;20483;-69
2021/10/24 02:59:15;;;;;;;27.37;24.93;;;4.60;99.90;;;;;;5091751;28;20457;-68
2021/10/24 03:01:42;;;;;;;28.80;25.73;;;4.60;99.90;;;;;;5090233;28;20465;-70
2021/10/24 03:04:11;;;;;;;27.97;25.37;;;4.50;99.90;;;;;;5095300;28;20465;-69
2021/10/24 03:06:40;;;;;;;27.50;24.90;;;4.50;99.90;;;;;;5093480;28;20493;-70
2021/10/24 03:09:07;;;;;;;28.70;25.57;;;4.40;99.90;;;;;;5092420;28;20527;-67
2021/10/24 03:11:34;;;;;;;28.13;25.53;;;4.40;99.90;;;;;;5087898;28;20462;-68
2021/10/24 03:14:02;;;;;;;30.00;26.97;;;4.40;99.90;;;;;;5096382;28;20458;-68
2021/10/24 03:16:29;;;;;;;28.23;25.60;;;4.40;99.90;;;;;;5086582;28;20461;-68
2021/10/24 03:18:55;;;;;;;27.90;24.87;;;4.40;99.90;;;;;;5091313;28;20470;-70
2021/10/24 03:21:23;;;;;;;27.87;25.57;;;4.30;99.90;;;;;;5094317;28;20467;-69
2021/10/24 03:23:51;;;;;;;28.80;25.97;;;4.30;99.90;;;;;;5094506;28;20607;-69
2021/10/24 03:26:18;;;;;;;29.03;26.20;;;4.30;99.90;;;;;;5090151;28;20472;-69
2021/10/24 03:28:45;;;;;;;28.90;26.00;;;4.30;99.90;;;;;;5092144;28;20528;-70
2021/10/24 03:31:12;;;;;;;28.23;25.93;;;4.30;99.90;;;;;;5090637;28;20485;-68
2021/10/24 03:33:39;;;;;;;27.50;25.10;;;4.30;99.90;;;;;;5099626;28;20831;-71
2021/10/24 03:36:06;;;;;;;28.43;25.53;;;4.30;99.90;;;;;;5094988;28;20465;-69
2021/10/24 03:38:33;;;;;;;26.83;24.70;;;4.30;99.90;;;;;;5094459;28;20898;-68
2021/10/24 03:41:02;;;;;;;28.30;25.87;;;4.30;99.90;;;;;;5099874;28;20952;-70
2021/10/24 03:43:29;;;;;;;31.37;27.37;;;4.20;99.90;;;;;;5094871;28;20465;-70
2021/10/24 03:45:56;;;;;;;29.97;26.90;;;4.20;99.90;;;;;;5096674;28;20492;-68
2021/10/24 03:48:23;;;;;;;28.80;26.10;;;4.20;99.90;;;;;;5099860;28;20462;-70
2021/10/24 03:50:49;;;;;;;28.33;25.77;;;4.30;99.90;;;;;;5097178;28;20491;-69
2021/10/24 03:53:17;;;;;;;28.47;25.70;;;4.20;99.90;;;;;;5098602;28;20457;-70
2021/10/24 03:55:45;;;;;;;28.70;26.10;;;4.20;99.90;;;;;;5097654;28;20546;-70
2021/10/24 03:58:14;;;;;;;32.93;26.70;;;4.20;99.90;;;;;;5086810;28;20486;-69
2021/10/24 04:00:41;;;;;;;30.10;27.10;;;4.10;99.90;;;;;;5085986;28;20453;-70
2021/10/24 04:03:08;;;;;;;28.03;25.30;;;4.20;99.90;;;;;;5088114;28;20965;-69
2021/10/24 04:05:35;;;;;;;29.00;26.40;;;4.30;99.90;;;;;;5085832;28;20964;-69
2021/10/24 04:08:04;;;;;;;30.10;27.43;;;4.30;99.90;;;;;;5090460;28;20916;-71
2021/10/24 04:10:32;;;;;;;28.23;25.83;;;4.30;99.90;;;;;;5096883;28;20492;-70
2021/10/24 04:13:00;;;;;;;28.57;26.03;;;4.40;99.90;;;;;;5100330;28;20460;-67
2021/10/24 04:15:28;;;;;;;27.33;24.63;;;4.40;99.90;;;;;;5091605;28;21019;-68
2021/10/24 04:17:55;;;;;;;28.27;25.80;;;4.40;99.90;;;;;;5097002;28;21034;-68
2021/10/24 04:20:23;;;;;;;28.40;25.83;;;4.40;99.90;;;;;;5098988;28;20464;-70
2021/10/24 04:22:51;;;;;;;28.00;25.70;;;4.40;99.90;;;;;;5096279;28;20482;-69
2021/10/24 04:25:19;;;;;;;28.10;25.63;;;4.40;99.90;;;;;;5089105;28;20471;-71
2021/10/24 04:27:46;;;;;;;29.70;27.00;;;4.30;99.90;;;;;;5094651;28;20504;-71
2021/10/24 04:30:14;;;;;;;29.20;26.30;;;4.20;99.90;;;;;;5094303;28;20482;-71
2021/10/24 04:32:43;;;;;;;29.10;26.43;;;4.20;99.90;;;;;;5100741;28;20831;-70
2021/10/24 04:35:11;;;;;;;29.87;27.13;;;4.20;99.90;;;;;;5088621;28;21229;-70
2021/10/24 04:37:39;;;;;;;29.60;27.07;;;4.20;99.90;;;;;;5092956;28;20872;-70
2021/10/24 04:40:09;;;;;;;31.80;26.20;;;4.20;99.90;;;;;;5091052;28;20549;-69
2021/10/24 04:42:37;;;;;;;27.87;25.17;;;4.20;99.90;;;;;;5091318;28;20474;-70
2021/10/24 04:45:05;;;;;;;29.53;26.87;;;4.30;99.90;;;;;;5099237;28;20462;-67
2021/10/24 04:47:32;;;;;;;30.47;27.30;;;4.30;99.90;;;;;;5095547;28;20461;-70
2021/10/24 04:50:01;;;;;;;28.90;26.30;;;4.30;99.90;;;;;;5093463;28;20847;-70
2021/10/24 04:52:29;;;;;;;29.60;26.80;;;4.30;99.90;;;;;;5094443;28;20458;-68
2021/10/24 04:54:56;;;;;;;30.60;27.80;;;4.30;99.90;;;;;;5092036;28;20845;-68
2021/10/24 04:57:24;;;;;;;28.90;26.40;;;4.30;99.90;;;;;;5095148;28;20490;-69
2021/10/24 04:59:52;;;;;;;29.43;26.50;;;4.30;99.90;;;;;;5097240;28;20864;-70
2021/10/24 05:02:22;;;;;;;30.17;27.37;;;4.30;99.90;;;;;;5091623;28;20576;-68
2021/10/24 05:04:49;;;;;;;29.73;26.60;;;4.20;99.90;;;;;;5094854;28;20553;-69
2021/10/24 05:07:18;;;;;;;32.13;27.10;;;4.20;99.90;;;;;;5095292;28;20458;-70
2021/10/24 05:09:44;;;;;;;30.80;27.60;;;4.20;99.90;;;;;;5096374;28;20803;-68
2021/10/24 05:12:11;;;;;;;31.37;28.23;;;4.10;99.90;;;;;;5086127;28;20470;-69
2021/10/24 05:14:38;;;;;;;32.60;29.80;;;4.10;99.90;;;;;;5098124;28;20464;-70
2021/10/24 05:17:05;;;;;;;31.43;28.43;;;4.00;99.90;;;;;;5093085;28;20614;-67
2021/10/24 05:19:32;;;;;;;32.07;28.70;;;4.00;99.90;;;;;;5093386;28;20943;-67
2021/10/24 05:21:59;;;;;;;35.87;28.43;;;4.00;99.90;;;;;;5095045;28;20910;-69
2021/10/24 05:24:27;;;;;;;29.63;26.73;;;4.10;99.90;;;;;;5096274;28;21249;-67
2021/10/24 05:26:55;;;;;;;34.57;27.47;;;4.10;99.90;;;;;;5099422;28;20473;-68
2021/10/24 05:29:21;;;;;;;30.43;27.60;;;4.10;99.90;;;;;;5100416;28;20559;-68
2021/10/24 05:31:50;;;;;;;32.00;28.90;;;4.00;99.90;;;;;;5097677;28;20493;-67
2021/10/24 05:34:17;;;;;;;32.17;29.10;;;4.00;99.90;;;;;;5098026;28;20493;-70
2021/10/24 05:36:46;;;;;;;31.47;28.40;;;3.90;99.90;;;;;;5099335;28;20450;-70
2021/10/24 05:39:14;;;;;;;31.30;28.30;;;3.90;99.90;;;;;;5097866;28;20466;-68
2021/10/24 05:41:42;;;;;;;32.43;29.17;;;3.90;99.90;;;;;;5101076;28;20457;-68
2021/10/24 05:44:09;;;;;;;31.90;28.90;;;3.90;99.90;;;;;;5091387;28;20453;-69
2021/10/24 05:46:36;;;;;;;30.43;27.50;;;3.80;99.90;;;;;;5079558;28;21043;-69
2021/10/24 05:49:03;;;;;;;32.13;29.10;;;3.70;99.90;;;;;;5096866;28;20573;-70
2021/10/24 05:51:30;;;;;;;34.23;30.03;;;3.70;99.90;;;;;;5096946;28;20493;-70
2021/10/24 05:53:58;;;;;;;33.00;29.77;;;3.70;99.90;;;;;;5094058;28;20675;-70
2021/10/24 05:56:25;;;;;;;32.67;29.27;;;3.60;99.90;;;;;;5085417;28;22487;-68
2021/10/24 05:58:56;;;;;;;32.57;29.37;;;3.70;99.90;;;;;;5101694;28;20465;-69
2021/10/24 06:01:23;;;;;;;33.37;29.90;;;3.70;99.90;;;;;;5082474;28;20466;-70
2021/10/24 06:03:50;;;;;;;32.30;29.47;;;3.60;99.90;;;;;;5095381;28;20461;-71
2021/10/24 06:06:17;;;;;;;32.33;29.13;;;3.60;99.90;;;;;;5087458;28;20462;-68
2021/10/24 06:08:44;;;;;;;38.17;28.90;;;3.60;99.90;;;;;;5094897;28;20951;-69
2021/10/24 06:11:18;;;;;;;32.87;29.60;;;3.60;99.90;;;;;;5094694;28;20580;-69
2021/10/24 06:13:46;;;;;;;32.20;29.00;;;3.60;99.90;;;;;;5084302;28;20462;-68
2021/10/24 06:16:15;;;;;;;33.83;30.20;;;3.60;99.90;;;;;;5085135;28;20970;-69
2021/10/24 06:18:42;;;;;;;33.57;30.17;;;3.50;99.90;;;;;;5093914;28;21040;-70
2021/10/24 06:21:10;;;;;;;35.90;31.20;;;3.50;99.90;;;;;;5100202;28;20820;-69
2021/10/24 06:23:40;;;;;;;32.83;29.73;;;3.50;99.90;;;;;;5091009;28;20490;-69
2021/10/24 06:26:06;;;;;;;38.67;30.00;;;3.60;99.90;;;;;;5089477;28;20443;-69
2021/10/24 06:28:33;;;;;;;35.97;28.70;;;3.70;99.90;;;;;;5090120;28;20546;-70
2021/10/24 06:31:00;;;;;;;30.03;27.10;;;3.70;99.90;;;;;;5085951;28;20478;-70
2021/10/24 06:33:30;;;;;;;32.33;29.20;;;3.70;99.90;;;;;;5092693;28;20462;-68
2021/10/24 06:35:58;;;;;;;31.57;28.63;;;3.70;99.90;;;;;;5092842;28;20809;-68
2021/10/24 06:38:26;;;;;;;34.23;30.20;;;3.80;99.90;;;;;;5099768;28;20494;-69
2021/10/24 06:40:53;;;;;;;36.07;30.03;;;3.80;99.90;;;;;;5093230;28;20458;-71
2021/10/24 06:43:20;;;;;;;31.60;28.50;;;3.80;99.90;;;;;;5096789;28;20468;-70
2021/10/24 06:45:46;;;;;;;30.23;27.20;;;3.80;99.90;;;;;;5090794;28;20459;-69
2021/10/24 06:48:15;;;;;;;30.47;27.37;;;3.80;99.90;;;;;;5094969;28;20460;-70
2021/10/24 06:50:43;;;;;;;32.77;28.10;;;3.80;99.90;;;;;;5099861;28;20522;-72
2021/10/24 06:53:11;;;;;;;38.20;28.53;;;3.80;99.90;;;;;;5086522;28;20445;-71
2021/10/24 06:55:37;;;;;;;32.40;28.13;;;3.90;99.90;;;;;;5090976;28;21003;-70
2021/10/24 06:58:06;;;;;;;31.10;27.73;;;3.90;99.90;;;;;;5097767;28;20507;-69
2021/10/24 07:00:33;;;;;;;29.57;26.70;;;3.90;99.90;;;;;;5094194;28;20816;-71
2021/10/24 07:02:59;;;;;;;29.20;26.20;;;4.10;99.90;;;;;;5094801;28;20453;-72
2021/10/24 07:05:28;;;;;;;30.30;26.80;;;4.20;99.90;;;;;;5090369;28;20462;-70
2021/10/24 07:07:58;;;;;;;27.80;25.00;;;4.20;99.90;;;;;;5087178;28;20833;-71
2021/10/24 07:10:25;;;;;;;28.73;25.93;;;4.30;99.90;;;;;;5094624;28;20603;-69
2021/10/24 07:12:54;;;;;;;31.17;26.27;;;4.30;99.90;;;;;;5098865;28;20553;-70
2021/10/24 07:15:22;;;;;;;33.50;27.80;;;4.30;99.90;;;;;;5097446;28;20466;-70
2021/10/24 07:17:49;;;;;;;30.73;27.63;;;4.40;99.90;;;;;;5085012;28;20465;-71
2021/10/24 07:20:18;;;;;;;34.37;27.00;;;4.40;99.90;;;;;;5103496;28;20944;-71
2021/10/24 07:22:46;;;;;;;37.50;28.17;;;4.40;99.90;;;;;;5083129;28;20481;-70
2021/10/24 07:25:15;;;;;;;30.23;26.70;;;4.50;99.90;;;;;;5091677;28;20466;-71
2021/10/24 07:27:44;;;;;;;32.17;28.10;;;4.50;99.90;;;;;;5090133;28;20463;-70
2021/10/24 07:30:12;;;;;;;29.97;26.80;;;4.60;99.90;;;;;;5090417;28;20461;-70
2021/10/24 07:32:39;;;;;;;31.13;26.77;;;4.70;99.90;;;;;;5089953;28;20491;-70
2021/10/24 07:35:07;;;;;;;30.27;26.83;;;4.80;99.90;;;;;;5097699;28;20869;-70
2021/10/24 07:37:34;;;;;;;30.00;26.57;;;4.90;99.90;;;;;;5094291;28;20463;-70
2021/10/24 07:40:01;;;;;;;38.40;27.70;;;5.00;99.90;;;;;;5093104;28;20454;-71
2021/10/24 07:42:30;;;;;;;28.70;25.80;;;5.10;99.90;;;;;;5096888;28;20466;-71
2021/10/24 07:44:59;;;;;;;33.87;28.20;;;5.10;99.90;;;;;;5099299;28;20935;-70
2021/10/24 07:47:30;;;;;;;39.50;28.80;;;5.20;99.90;;;;;;5087844;28;20463;-70
2021/10/24 07:49:58;;;;;;;36.33;29.23;;;5.30;99.90;;;;;;5093112;28;20887;-71
2021/10/24 07:52:25;;;;;;;32.47;29.13;;;5.40;99.90;;;;;;5093792;28;20489;-70
2021/10/24 07:54:53;;;;;;;33.37;29.13;;;5.50;99.90;;;;;;5093498;28;20493;-69
2021/10/24 07:57:23;;;;;;;30.40;26.50;;;5.60;99.90;;;;;;5087979;28;20474;-69
2021/10/24 07:59:52;;;;;;;30.23;27.20;;;5.70;99.90;;;;;;5091227;28;20495;-70
2021/10/24 08:02:19;;;;;;;29.43;26.43;;;5.70;99.90;;;;;;5090479;28;20458;-70
2021/10/24 08:04:46;;;;;;;33.97;29.80;;;5.80;99.90;;;;;;5096941;28;20458;-72
2021/10/24 08:07:13;;;;;;;38.03;30.90;;;5.90;99.90;;;;;;5101910;28;20554;-72
2021/10/24 08:09:40;;;;;;;32.57;28.73;;;6.00;99.90;;;;;;5091643;28;21021;-69
2021/10/24 08:12:08;;;;;;;32.80;29.60;;;6.10;99.90;;;;;;5091704;28;20491;-72
2021/10/24 08:14:36;;;;;;;37.07;31.63;;;6.10;99.90;;;;;;5091200;28;20468;-70
2021/10/24 08:17:06;;;;;;;33.50;30.27;;;6.20;99.90;;;;;;5089187;28;20446;-71
2021/10/24 08:19:34;;;;;;;35.97;30.60;;;6.30;99.90;;;;;;5076614;28;20641;-70
2021/10/24 08:22:03;;;;;;;36.80;33.00;;;6.40;99.90;;;;;;5085383;28;20497;-71
2021/10/24 08:24:30;;;;;;;35.67;31.97;;;6.40;99.90;;;;;;5095134;28;20884;-70
2021/10/24 08:26:59;;;;;;;35.50;31.80;;;6.50;99.90;;;;;;5088572;28;20463;-69
2021/10/24 08:29:26;;;;;;;37.20;33.23;;;6.60;99.90;;;;;;5097482;28;20554;-70
2021/10/24 08:31:54;;;;;;;34.50;31.00;;;6.70;99.90;;;;;;5084587;28;20478;-70
2021/10/24 08:34:24;;;;;;;36.17;32.60;;;6.70;99.90;;;;;;5094422;28;20472;-70
2021/10/24 08:36:52;;;;;;;39.27;32.90;;;6.70;99.90;;;;;;5096671;28;20566;-67
2021/10/24 08:39:19;;;;;;;35.63;32.10;;;6.80;99.90;;;;;;5100228;28;20488;-68
2021/10/24 08:41:49;;;;;;;37.10;33.20;;;6.80;99.90;;;;;;5098985;28;20465;-67
2021/10/24 08:44:17;;;;;;;36.40;32.83;;;6.90;99.90;;;;;;5085816;28;20796;-69
2021/10/24 08:46:44;;;;;;;38.17;32.80;;;7.00;99.90;;;;;;5085290;28;20465;-72
2021/10/24 08:49:12;;;;;;;39.13;34.90;;;7.00;99.90;;;;;;5099641;28;20456;-70
2021/10/24 08:51:41;;;;;;;41.73;36.53;;;7.10;99.90;;;;;;5091549;28;21030;-71
2021/10/24 08:54:10;;;;;;;35.63;31.80;;;7.20;99.90;;;;;;5098146;28;20547;-70
2021/10/24 08:56:37;;;;;;;36.87;32.83;;;7.30;99.90;;;;;;5087742;28;20871;-70
2021/10/24 08:59:06;;;;;;;38.30;33.60;;;7.40;99.90;;;;;;5092447;28;20449;-71
2021/10/24 09:01:35;;;;;;;38.20;34.40;;;7.50;99.90;;;;;;5090715;28;21001;-71
2021/10/24 09:04:08;;;;;;;40.33;34.53;;;7.50;99.90;;;;;;5089853;28;20466;-71
2021/10/24 09:06:53;;;;;;;43.10;33.33;;;7.60;99.90;;;;;;5089996;28;20460;-69
2021/10/24 09:09:21;;;;;;;36.43;32.63;;;7.70;99.90;;;;;;5091580;28;20538;-73
2021/10/24 09:11:54;;;;;;;37.63;33.57;;;7.80;99.90;;;;;;5094182;28;20493;-70
2021/10/24 09:14:43;;;;;;;37.80;32.97;;;7.90;99.90;;;;;;5086944;28;21649;-69
2021/10/24 09:17:11;;;;;;;35.47;31.80;;;8.00;99.90;;;;;;5088108;28;21172;-70
2021/10/24 09:19:41;;;;;;;36.33;32.80;;;8.00;99.90;;;;;;5089270;28;20466;-72
2021/10/24 09:22:17;;;;;;;35.17;31.57;;;8.10;99.90;;;;;;5095048;28;20463;-69
2021/10/24 09:25:09;;;;;;;37.00;31.53;;;8.20;99.90;;;;;;5099467;28;20480;-70
2021/10/24 09:27:43;;;;;;;33.80;30.40;;;8.30;99.90;;;;;;5084814;28;20516;-71
2021/10/24 09:30:12;;;;;;;39.83;31.10;;;8.50;99.90;;;;;;5093547;28;20469;-70
2021/10/24 09:33:00;;;;;;;35.23;31.60;;;8.60;99.90;;;;;;5092190;28;20522;-70
2021/10/24 09:35:29;;;;;;;35.63;31.17;;;8.60;99.90;;;;;;5102761;28;20504;-70
2021/10/24 09:38:00;;;;;;;34.90;31.33;;;8.80;99.90;;;;;;5092822;28;20449;-72
2021/10/24 09:40:29;;;;;;;33.93;30.30;;;8.90;99.90;;;;;;5095348;28;20519;-73
2021/10/24 09:43:17;;;;;;;34.57;30.70;;;8.90;99.90;;;;;;5095411;28;20465;-71
2021/10/24 09:45:45;;;;;;;33.20;29.90;;;9.10;99.90;;;;;;5087369;28;20933;-70
2021/10/24 09:48:13;;;;;;;33.83;30.47;;;9.20;99.90;;;;;;5094891;28;20453;-73
2021/10/24 09:50:46;;;;;;;37.23;30.57;;;9.30;99.90;;;;;;5090691;28;20464;-70
2021/10/24 09:53:20;;;;;;;33.47;29.73;;;9.40;99.90;;;;;;5096940;28;21072;-71
2021/10/24 09:56:03;;;;;;;32.67;29.23;;;9.50;99.90;;;;;;5090520;28;20464;-70
2021/10/24 09:58:31;;;;;;;31.17;28.23;;;9.60;99.90;;;;;;5091194;28;21192;-70
2021/10/24 10:00:59;;;;;;;31.73;28.63;;;9.70;99.90;;;;;;5084905;28;20534;-72
2021/10/24 10:03:27;;;;;;;29.93;27.00;;;9.80;99.90;;;;;;5089689;28;20478;-70
2021/10/24 10:05:56;;;;;;;28.53;25.63;;;9.90;99.90;;;;;;5090349;28;20515;-71
2021/10/24 10:08:25;;;;;;;28.17;25.33;;;10.20;99.90;;;;;;5094262;28;20462;-70
2021/10/24 10:10:55;;;;;;;24.77;22.57;;;10.60;99.90;;;;;;5094554;28;20458;-70
2021/10/24 10:13:25;;;;;;;26.30;23.80;;;11.30;99.90;;;;;;5092838;28;21038;-70
2021/10/24 10:15:54;;;;;;;23.63;21.43;;;12.10;99.90;;;;;;5096391;28;20469;-70
2021/10/24 10:18:22;;;;;;;21.50;19.83;;;12.80;99.90;;;;;;5089725;28;20844;-70
2021/10/24 10:20:51;;;;;;;21.73;19.97;;;13.30;99.90;;;;;;5091575;28;20473;-70
2021/10/24 10:23:22;;;;;;;21.63;19.73;;;13.80;99.90;;;;;;5090288;28;20477;-71
2021/10/24 10:25:52;;;;;;;19.20;17.67;;;14.30;99.90;;;;;;5085191;28;20963;-72
2021/10/24 10:28:46;;;;;;;19.40;17.90;;;14.50;99.90;;;;;;5090348;28;21170;-69
2021/10/24 10:31:14;;;;;;;20.37;18.80;;;14.80;99.90;;;;;;5081767;28;20848;-69
2021/10/24 10:33:41;;;;;;;20.07;18.43;;;14.90;99.90;;;;;;5086737;28;20489;-72
2021/10/24 10:36:10;;;;;;;20.10;18.63;;;15.20;99.90;;;;;;5093720;28;20557;-69
2021/10/24 10:38:39;;;;;;;19.70;17.90;;;15.30;99.90;;;;;;5088992;28;20462;-68
2021/10/24 10:41:10;;;;;;;19.60;18.30;;;15.70;99.90;;;;;;5093496;28;20460;-70
2021/10/24 10:43:38;;;;;;;19.27;17.77;;;15.60;99.90;;;;;;5095510;28;20453;-71
2021/10/24 10:46:07;;;;;;;20.03;18.57;;;15.80;99.90;;;;;;5083096;28;20460;-69
2021/10/24 10:48:41;;;;;;;20.00;18.37;;;15.90;99.90;;;;;;5095563;28;20931;-69
2021/10/24 10:51:21;;;;;;;20.93;19.03;;;16.00;99.90;;;;;;5087352;28;20525;-69
2021/10/24 10:53:59;;;;;;;21.20;19.50;;;16.30;99.90;;;;;;5095733;28;20862;-71
2021/10/24 10:56:30;;;;;;;20.63;18.63;;;16.50;99.90;;;;;;5087229;28;20478;-69
2021/10/24 10:58:58;;;;;;;20.50;19.03;;;17.00;99.90;;;;;;5089418;28;20455;-69
2021/10/24 11:01:34;;;;;;;20.83;18.93;;;17.30;99.90;;;;;;5085022;28;20454;-68
2021/10/24 11:04:15;;;;;;;20.17;18.37;;;17.10;99.90;;;;;;5087245;28;20547;-71
2021/10/24 11:06:56;;;;;;;19.40;18.00;;;16.90;99.90;;;;;;5089431;28;20476;-69
2021/10/24 11:09:46;;;;;;;19.80;18.10;;;17.00;99.90;;;;;;5090693;28;20959;-69
2021/10/24 11:12:33;;;;;;;18.83;17.57;;;16.70;99.90;;;;;;5093637;28;20484;-69
2021/10/24 11:15:28;;;;;;;19.03;17.63;;;16.70;99.90;;;;;;5084264;28;20462;-68
2021/10/24 11:17:58;;;;;;;20.30;18.70;;;16.70;99.90;;;;;;5088952;28;20478;-70
2021/10/24 11:20:40;;;;;;;20.27;18.67;;;16.80;99.90;;;;;;5097247;28;20496;-72
2021/10/24 11:23:11;;;;;;;20.43;18.37;;;16.50;99.90;;;;;;5086080;28;20990;-70
2021/10/24 11:25:39;;;;;;;20.50;18.80;;;16.20;99.90;;;;;;5089306;28;20453;-68
2021/10/24 11:28:12;;;;;;;21.13;19.23;;;16.40;99.90;;;;;;5096209;28;20456;-68
2021/10/24 11:30:40;;;;;;;19.03;17.53;;;16.90;99.90;;;;;;5093759;28;20466;-69
2021/10/24 11:33:09;;;;;;;18.87;17.67;;;17.40;99.90;;;;;;5097205;28;20492;-69
2021/10/24 11:35:40;;;;;;;19.40;18.10;;;17.90;99.90;;;;;;5092657;28;20458;-69
2021/10/24 11:38:12;;;;;;;19.77;18.47;;;17.90;99.90;;;;;;5086289;28;20561;-69
2021/10/24 11:40:41;;;;;;;18.57;17.23;;;18.10;99.90;;;;;;5102756;28;20465;-72
2021/10/24 11:43:12;;;;;;;19.47;17.80;;;17.60;99.90;;;;;;5092285;28;20457;-68
2021/10/24 11:45:41;;;;;;;19.30;18.07;;;17.60;99.90;;;;;;5085298;28;20474;-69
2021/10/24 11:48:11;;;;;;;18.50;17.10;;;18.10;99.90;;;;;;5097114;28;20951;-71
2021/10/24 11:50:51;;;;;;;18.87;17.67;;;18.50;99.90;;;;;;5091706;28;20461;-69
2021/10/24 11:53:20;;;;;;;17.87;16.80;;;19.10;99.90;;;;;;5092519;28;21010;-70
2021/10/24 11:55:51;;;;;;;18.67;17.23;;;19.20;99.90;;;;;;5084241;28;20469;-69
2021/10/24 11:58:42;;;;;;;19.00;17.50;;;19.80;99.90;;;;;;5089369;28;20498;-69
2021/10/24 12:01:12;;;;;;;19.23;17.70;;;19.80;99.90;;;;;;5093988;28;20497;-70
2021/10/24 12:03:41;;;;;;;18.53;17.07;;;19.70;99.90;;;;;;5091008;28;20558;-70
2021/10/24 12:06:11;;;;;;;17.90;16.60;;;19.90;99.90;;;;;;5089927;28;20458;-69
2021/10/24 12:09:05;;;;;;;18.23;16.73;;;19.90;99.90;;;;;;5095131;28;20450;-70
2021/10/24 12:11:43;;;;;;;17.63;16.33;;;20.10;99.90;;;;;;5096614;28;20457;-71
2021/10/24 12:14:12;;;;;;;17.20;15.90;;;20.00;99.90;;;;;;5086090;28;20492;-69
2021/10/24 12:16:42;;;;;;;17.83;16.10;;;19.90;99.90;;;;;;5088731;28;20470;-69
2021/10/24 12:19:27;;;;;;;18.10;16.70;;;20.20;99.90;;;;;;5088149;28;20457;-69
2021/10/24 12:22:00;;;;;;;18.00;16.60;;;20.10;99.90;;;;;;5084648;28;20538;-70
2021/10/24 12:24:31;;;;;;;17.17;15.97;;;20.10;99.90;;;;;;5092657;28;20481;-69
2021/10/24 12:27:11;;;;;;;17.20;16.07;;;19.40;99.90;;;;;;5097570;28;20458;-69
2021/10/24 12:29:40;;;;;;;16.53;15.43;;;19.50;99.90;;;;;;5100918;28;20457;-70
2021/10/24 12:32:10;;;;;;;16.37;15.23;;;19.20;99.90;;;;;;5085707;28;20929;-69
2021/10/24 12:34:37;;;;;;;15.80;14.40;;;19.40;99.90;;;;;;5080663;28;20458;-71
2021/10/24 12:37:15;;;;;;;17.40;15.77;;;19.40;99.90;;;;;;5088943;28;20527;-70
2021/10/24 12:39:42;;;;;;;16.10;14.97;;;20.00;99.90;;;;;;5083437;28;20485;-68
2021/10/24 12:42:21;;;;;;;17.50;16.07;;;20.50;99.80;;;;;;5084583;28;20807;-72
2021/10/24 12:44:49;;;;;;;15.53;14.43;;;20.40;99.70;;;;;;5083877;28;20472;-72
2021/10/24 12:47:20;;;;;;;16.20;15.20;;;20.60;99.60;;;;;;5083549;28;20976;-69